createdAt,value
2019-03-26T00:00:48.858Z,10.14
2019-03-26T00:03:18.038Z,10.25
2019-03-26T00:05:47.318Z,10.53
2019-03-26T00:08:16.551Z,11.35
2019-03-26T00:10:45.686Z,11.20
2019-03-26T00:13:14.863Z,11.36
2019-03-26T00:15:43.999Z,11.69
2019-03-26T00:18:13.195Z,11.41
2019-03-26T00:20:42.574Z,11.43
2019-03-26T00:23:11.957Z,11.17
2019-03-26T00:25:41.617Z,11.66
2019-03-26T00:28:10.807Z,10.89
2019-03-26T00:30:39.965Z,11.17
2019-03-26T00:33:09.431Z,10.49
2019-03-26T00:35:39.489Z,10.24
2019-03-26T00:38:08.642Z,10.53
2019-03-26T00:40:40.173Z,10.11
2019-03-26T00:43:09.241Z,10.78
2019-03-26T00:45:38.873Z,10.26
2019-03-26T00:48:08.263Z,10.72
2019-03-26T00:50:37.479Z,11.00
2019-03-26T00:53:06.654Z,10.87
2019-03-26T00:55:35.766Z,9.36
2019-03-26T00:58:05.399Z,9.32
2019-03-26T01:00:44.272Z,10.24
2019-03-26T01:03:14.197Z,10.26
2019-03-26T01:05:43.722Z,10.91
2019-03-26T01:08:12.940Z,11.12
2019-03-26T01:10:42.388Z,10.39
2019-03-26T01:13:11.599Z,9.95
2019-03-26T01:15:41.094Z,10.32
2019-03-26T01:18:10.498Z,9.00
2019-03-26T01:20:40.253Z,10.28
2019-03-26T01:23:09.471Z,10.06
2019-03-26T01:25:39.737Z,10.92
2019-03-26T01:28:08.883Z,10.45
2019-03-26T01:30:38.728Z,10.74
2019-03-26T01:33:07.890Z,10.37
2019-03-26T01:35:37.151Z,10.42
2019-03-26T01:38:06.287Z,9.92
2019-03-26T01:40:35.437Z,10.46
2019-03-26T01:43:04.644Z,9.14
2019-03-26T01:45:34.092Z,9.08
2019-03-26T01:48:03.290Z,9.76
2019-03-26T01:50:32.518Z,9.71
2019-03-26T01:53:02.137Z,9.25
2019-03-26T01:55:31.289Z,9.50
2019-03-26T01:58:00.437Z,9.71
2019-03-26T02:00:29.895Z,10.64
2019-03-26T02:02:59.079Z,10.61
2019-03-26T02:05:28.231Z,10.41
2019-03-26T02:07:57.602Z,10.76
2019-03-26T02:10:26.759Z,10.93
2019-03-26T02:12:55.911Z,10.67
2019-03-26T02:15:32.355Z,10.16
2019-03-26T02:18:01.723Z,9.94
2019-03-26T02:20:31.129Z,8.75
2019-03-26T02:23:00.282Z,10.61
2019-03-26T02:25:29.811Z,9.04
2019-03-26T02:27:58.953Z,9.54
2019-03-26T02:30:28.965Z,10.05
2019-03-26T02:32:58.899Z,9.49
2019-03-26T02:35:28.733Z,9.74
2019-03-26T02:37:58.162Z,10.00
2019-03-26T02:40:27.609Z,9.67
2019-03-26T02:42:57.120Z,9.55
2019-03-26T02:45:26.373Z,9.31
2019-03-26T02:47:55.743Z,9.89
2019-03-26T02:50:24.977Z,9.23
2019-03-26T02:52:54.459Z,9.51
2019-03-26T02:55:24.020Z,10.93
2019-03-26T02:57:53.877Z,9.00
2019-03-26T03:00:23.115Z,10.31
2019-03-26T03:02:52.273Z,9.24
2019-03-26T03:05:34.242Z,10.09
2019-03-26T03:07:53.588Z,10.32
2019-03-26T03:10:22.785Z,9.97
2019-03-26T03:12:52.876Z,10.08
2019-03-26T03:15:22.081Z,9.89
2019-03-26T03:17:51.225Z,9.78
2019-03-26T03:20:20.381Z,9.89
2019-03-26T03:22:49.812Z,9.89
2019-03-26T03:25:19.307Z,10.00
2019-03-26T03:27:48.715Z,10.60
2019-03-26T03:30:20.097Z,10.03
2019-03-26T03:32:50.011Z,10.39
2019-03-26T03:35:19.178Z,9.23
2019-03-26T03:37:48.560Z,10.13
2019-03-26T03:40:17.843Z,10.37
2019-03-26T03:42:47.293Z,9.25
2019-03-26T03:45:21.826Z,10.12
2019-03-26T03:47:51.463Z,11.03
2019-03-26T03:50:20.899Z,10.48
2019-03-26T03:52:50.862Z,9.59
2019-03-26T03:55:20.094Z,9.22
2019-03-26T03:57:52.761Z,10.60
2019-03-26T04:03:14.576Z,9.51
2019-03-26T04:05:43.702Z,10.26
2019-03-26T04:08:12.957Z,9.74
2019-03-26T04:10:42.367Z,9.61
2019-03-26T04:13:12.529Z,9.34
2019-03-26T04:15:41.841Z,9.27
2019-03-26T04:18:11.040Z,9.43
2019-03-26T04:20:40.251Z,8.49
2019-03-26T04:23:09.539Z,9.70
2019-03-26T04:25:39.683Z,8.94
2019-03-26T04:28:08.849Z,9.44
2019-03-26T04:30:38.027Z,10.13
2019-03-26T04:33:07.492Z,10.90
2019-03-26T04:35:36.709Z,9.33
2019-03-26T04:38:05.968Z,10.44
2019-03-26T04:40:35.983Z,10.99
2019-03-26T04:43:05.307Z,11.28
2019-03-26T04:45:34.671Z,9.74
2019-03-26T04:48:03.886Z,10.02
2019-03-26T04:50:33.053Z,9.53
2019-03-26T04:53:02.233Z,8.52
2019-03-26T04:55:31.450Z,9.12
2019-03-26T04:58:00.694Z,10.13
2019-03-26T05:00:29.909Z,9.70
2019-03-26T05:02:59.300Z,9.26
2019-03-26T05:05:28.536Z,9.83
2019-03-26T05:07:57.724Z,9.77
2019-03-26T05:10:27.193Z,8.51
2019-03-26T05:12:56.426Z,9.78
2019-03-26T05:15:25.566Z,8.56
2019-03-26T05:17:56.611Z,9.21
2019-03-26T05:20:26.128Z,10.03
2019-03-26T05:22:55.350Z,10.02
2019-03-26T05:25:24.801Z,9.80
2019-03-26T05:27:54.457Z,10.10
2019-03-26T05:30:23.635Z,10.68
2019-03-26T05:32:52.826Z,10.92
2019-03-26T05:35:22.283Z,11.21
2019-03-26T05:37:51.918Z,10.61
2019-03-26T05:40:21.412Z,10.19
2019-03-26T05:42:50.550Z,10.72
2019-03-26T05:45:19.742Z,10.91
2019-03-26T05:47:49.174Z,10.96
2019-03-26T05:50:18.434Z,10.34
2019-03-26T05:52:47.583Z,10.41
2019-03-26T05:55:17.031Z,10.72
2019-03-26T05:57:46.342Z,8.55
2019-03-26T06:00:26.176Z,9.64
2019-03-26T06:03:02.894Z,9.40
2019-03-26T06:05:32.498Z,10.06
2019-03-26T06:08:01.701Z,11.11
2019-03-26T06:10:30.886Z,10.08
2019-03-26T06:13:00.094Z,11.19
2019-03-26T06:15:29.589Z,9.92
2019-03-26T06:18:02.261Z,10.43
2019-03-26T06:20:32.587Z,11.27
2019-03-26T06:23:04.648Z,9.63
2019-03-26T06:25:33.927Z,9.12
2019-03-26T06:28:03.292Z,10.09
2019-03-26T06:30:32.560Z,10.71
2019-03-26T06:33:01.720Z,8.21
2019-03-26T06:35:31.033Z,9.41
2019-03-26T06:38:00.866Z,9.40
2019-03-26T06:40:30.438Z,10.77
2019-03-26T06:43:09.065Z,9.99
2019-03-26T06:45:38.190Z,10.08
2019-03-26T06:48:07.638Z,8.81
2019-03-26T06:50:37.138Z,8.56
2019-03-26T06:53:06.979Z,9.91
2019-03-26T06:55:36.222Z,9.99
2019-03-26T06:58:05.684Z,10.26
2019-03-26T07:00:36.057Z,10.48
2019-03-26T07:03:06.813Z,9.26
2019-03-26T07:05:36.252Z,9.35
2019-03-26T07:08:05.524Z,9.27
2019-03-26T07:10:34.793Z,10.50
2019-03-26T07:13:04.038Z,9.36
2019-03-26T07:15:33.519Z,9.62
2019-03-26T07:18:02.745Z,9.47
2019-03-26T07:20:32.735Z,9.54
2019-03-26T07:23:02.283Z,10.98
2019-03-26T07:25:31.644Z,9.98
2019-03-26T07:28:00.824Z,9.61
2019-03-26T07:30:37.636Z,10.29
2019-03-26T07:33:07.601Z,9.77
2019-03-26T07:35:36.864Z,9.36
2019-03-26T07:38:06.220Z,10.06
2019-03-26T07:40:35.777Z,8.96
2019-03-26T07:43:05.295Z,8.53
2019-03-26T07:45:34.570Z,8.54
2019-03-26T07:48:04.072Z,8.93
2019-03-26T07:50:33.258Z,9.50
2019-03-26T07:53:02.651Z,9.81
2019-03-26T07:55:32.073Z,8.94
2019-03-26T07:58:01.207Z,8.30
2019-03-26T08:00:34.455Z,9.34
2019-03-26T08:03:03.681Z,8.80
2019-03-26T08:05:33.595Z,10.13
2019-03-26T08:08:02.983Z,10.24
2019-03-26T08:10:32.169Z,10.14
2019-03-26T08:13:01.346Z,10.05
2019-03-26T08:15:30.674Z,8.75
2019-03-26T08:17:59.830Z,10.32
2019-03-26T08:20:29.118Z,10.08
2019-03-26T08:22:58.284Z,9.23
2019-03-26T08:25:27.472Z,10.52
2019-03-26T08:27:56.668Z,10.49
2019-03-26T08:30:25.986Z,11.12
2019-03-26T08:32:55.280Z,10.93
2019-03-26T08:35:24.492Z,10.16
2019-03-26T08:37:53.835Z,9.76
2019-03-26T08:40:23.558Z,9.42
2019-03-26T08:42:52.817Z,9.44
2019-03-26T08:45:21.953Z,10.66
2019-03-26T08:47:51.154Z,10.92
2019-03-26T08:50:20.391Z,10.70
2019-03-26T08:52:49.653Z,12.10
2019-03-26T08:55:18.809Z,12.82
2019-03-26T08:57:48.198Z,12.25
2019-03-26T09:00:17.647Z,13.16
2019-03-26T09:02:46.804Z,14.47
2019-03-26T09:05:16.330Z,13.99
2019-03-26T09:07:45.795Z,14.51
2019-03-26T09:10:15.304Z,15.08
2019-03-26T09:12:44.571Z,15.91
2019-03-26T09:15:14.795Z,14.77
2019-03-26T09:17:44.924Z,14.46
2019-03-26T09:20:14.506Z,12.85
2019-03-26T09:22:43.785Z,12.32
2019-03-26T09:25:13.471Z,12.32
2019-03-26T09:27:42.621Z,12.75
2019-03-26T09:30:12.485Z,12.16
2019-03-26T09:32:42.013Z,10.91
2019-03-26T09:35:11.622Z,10.94
2019-03-26T09:37:40.739Z,12.27
2019-03-26T09:40:10.423Z,11.48
2019-03-26T09:42:40.301Z,12.23
2019-03-26T09:45:10.775Z,12.48
2019-03-26T09:47:40.151Z,13.09
2019-03-26T09:50:09.658Z,13.53
2019-03-26T09:52:39.157Z,14.97
2019-03-26T09:55:08.809Z,13.57
2019-03-26T09:57:37.941Z,13.41
2019-03-26T10:00:08.007Z,14.72
2019-03-26T10:02:37.204Z,13.77
2019-03-26T10:05:07.194Z,13.35
2019-03-26T10:07:36.448Z,14.11
2019-03-26T10:10:06.219Z,15.45
2019-03-26T10:12:35.399Z,16.16
2019-03-26T10:15:05.297Z,16.16
2019-03-26T10:17:34.473Z,16.13
2019-03-26T10:20:03.774Z,16.96
2019-03-26T10:22:32.962Z,17.64
2019-03-26T10:25:02.438Z,15.68
2019-03-26T10:27:31.564Z,16.59
2019-03-26T10:30:00.930Z,17.40
2019-03-26T10:32:30.413Z,16.56
2019-03-26T10:34:59.561Z,16.71
2019-03-26T10:37:29.337Z,15.20
2019-03-26T10:39:58.475Z,14.52
2019-03-26T10:42:27.654Z,14.79
2019-03-26T10:44:57.053Z,14.21
2019-03-26T10:47:26.238Z,14.78
2019-03-26T10:49:55.480Z,13.81
2019-03-26T10:52:24.699Z,13.46
2019-03-26T10:54:54.445Z,13.14
2019-03-26T10:57:23.671Z,13.53
2019-03-26T10:59:53.233Z,13.69
2019-03-26T11:02:22.409Z,13.79
2019-03-26T11:04:51.620Z,14.03
2019-03-26T11:07:20.811Z,13.45
2019-03-26T11:09:50.875Z,13.41
2019-03-26T11:12:20.871Z,12.90
2019-03-26T11:14:50.678Z,12.19
2019-03-26T11:17:19.921Z,12.52
2019-03-26T11:19:49.152Z,14.15
2019-03-26T11:22:18.299Z,13.82
2019-03-26T11:24:47.539Z,13.88
2019-03-26T11:27:16.748Z,13.38
2019-03-26T11:29:46.083Z,14.40
2019-03-26T11:32:15.284Z,12.87
2019-03-26T11:34:44.535Z,14.73
2019-03-26T11:37:13.999Z,14.17
2019-03-26T11:39:43.272Z,15.61
2019-03-26T11:42:12.506Z,15.25
2019-03-26T11:44:41.679Z,14.32
2019-03-26T11:47:10.842Z,12.95
2019-03-26T11:49:40.018Z,13.01
2019-03-26T11:52:09.731Z,13.32
2019-03-26T11:54:38.908Z,13.54
2019-03-26T11:57:08.093Z,13.35
2019-03-26T11:59:37.265Z,14.00
2019-03-26T12:02:07.916Z,13.16
2019-03-26T12:04:37.168Z,14.30
2019-03-26T12:07:06.423Z,13.39
2019-03-26T12:09:45.692Z,13.38
2019-03-26T12:12:06.844Z,13.47
2019-03-26T12:14:36.008Z,13.25
2019-03-26T12:17:06.003Z,12.57
2019-03-26T12:19:35.399Z,12.16
2019-03-26T12:22:04.695Z,11.98
2019-03-26T12:24:33.821Z,12.45
2019-03-26T12:27:03.168Z,12.71
2019-03-26T12:29:32.344Z,12.83
2019-03-26T12:32:01.556Z,13.63
2019-03-26T12:34:30.739Z,13.17
2019-03-26T12:37:00.003Z,12.92
2019-03-26T12:39:29.477Z,12.77
2019-03-26T12:41:58.918Z,12.34
2019-03-26T12:44:29.321Z,13.59
2019-03-26T12:46:58.599Z,12.90
2019-03-26T12:49:30.578Z,13.36
2019-03-26T12:51:59.891Z,13.90
2019-03-26T12:54:29.153Z,12.79
2019-03-26T12:56:58.388Z,13.73
2019-03-26T12:59:27.593Z,13.74
2019-03-26T13:01:57.695Z,13.74
2019-03-26T13:04:26.923Z,14.52
2019-03-26T13:06:56.769Z,13.96
2019-03-26T13:09:26.014Z,13.90
2019-03-26T13:11:55.298Z,13.95
2019-03-26T13:14:24.637Z,13.70
2019-03-26T13:16:53.849Z,12.43
2019-03-26T13:19:23.120Z,12.27
2019-03-26T13:21:52.758Z,12.66
2019-03-26T13:24:21.938Z,13.35
2019-03-26T13:26:51.183Z,12.60
2019-03-26T13:29:21.046Z,12.94
2019-03-26T13:31:50.389Z,13.05
2019-03-26T13:34:19.601Z,12.40
2019-03-26T13:36:48.769Z,12.61
2019-03-26T13:39:18.260Z,13.29
2019-03-26T13:41:47.900Z,12.88
2019-03-26T13:44:17.449Z,13.46
2019-03-26T13:46:46.637Z,12.06
2019-03-26T13:49:15.820Z,12.89
2019-03-26T13:51:45.711Z,13.51
2019-03-26T13:54:20.796Z,13.75
2019-03-26T13:56:49.939Z,12.09
2019-03-26T13:59:19.873Z,12.39
2019-03-26T14:01:49.131Z,12.66
2019-03-26T14:04:18.478Z,12.96
2019-03-26T14:06:47.908Z,12.84
2019-03-26T14:09:22.500Z,12.60
2019-03-26T14:11:52.460Z,13.32
2019-03-26T14:14:22.250Z,12.43
2019-03-26T14:16:51.738Z,12.79
2019-03-26T14:19:21.262Z,12.51
2019-03-26T14:21:50.558Z,11.70
2019-03-26T14:24:19.813Z,13.55
2019-03-26T14:26:48.992Z,13.26
2019-03-26T14:29:18.185Z,12.59
2019-03-26T14:31:47.468Z,12.42
2019-03-26T14:34:16.655Z,11.22
2019-03-26T14:36:46.550Z,10.78
2019-03-26T14:39:15.685Z,11.15
2019-03-26T14:41:45.212Z,11.51
2019-03-26T14:44:14.713Z,10.96
2019-03-26T14:46:43.998Z,11.49
2019-03-26T14:49:13.151Z,12.60
2019-03-26T14:51:42.745Z,11.21
2019-03-26T14:54:12.269Z,11.81
2019-03-26T14:56:41.506Z,12.03
2019-03-26T14:59:11.955Z,12.10
2019-03-26T15:01:41.088Z,11.10
2019-03-26T15:04:10.290Z,12.20
2019-03-26T15:06:39.548Z,12.02
2019-03-26T15:09:09.962Z,11.88
2019-03-26T15:11:40.840Z,12.54
2019-03-26T15:14:10.525Z,12.52
2019-03-26T15:16:40.260Z,11.92
2019-03-26T15:19:10.732Z,12.14
2019-03-26T15:21:40.848Z,12.32
2019-03-26T15:24:11.521Z,11.79
2019-03-26T15:26:41.096Z,11.13
2019-03-26T15:29:11.955Z,12.36
2019-03-26T15:31:41.161Z,11.50
2019-03-26T15:34:10.387Z,12.01
2019-03-26T15:36:40.306Z,12.16
2019-03-26T15:39:11.225Z,11.88
2019-03-26T15:41:40.630Z,12.33
2019-03-26T15:44:09.844Z,12.58
2019-03-26T15:46:39.218Z,12.58
2019-03-26T15:49:08.681Z,12.06
2019-03-26T15:51:38.079Z,11.92
2019-03-26T15:54:07.754Z,11.60
2019-03-26T15:56:37.983Z,12.12
2019-03-26T15:59:08.408Z,11.78
2019-03-26T16:01:41.398Z,11.83
2019-03-26T16:04:10.750Z,11.19
2019-03-26T16:06:40.323Z,11.74
2019-03-26T16:09:11.019Z,11.42
2019-03-26T16:11:40.395Z,11.65
2019-03-26T16:14:09.884Z,12.15
2019-03-26T16:16:39.186Z,11.62
2019-03-26T16:19:08.697Z,11.37
2019-03-26T16:21:38.357Z,10.80
2019-03-26T16:24:07.799Z,10.85
2019-03-26T16:26:37.778Z,11.03
2019-03-26T16:29:06.978Z,11.15
2019-03-26T16:31:36.452Z,11.44
2019-03-26T16:34:05.660Z,11.47
2019-03-26T16:36:35.509Z,12.52
2019-03-26T16:39:06.272Z,11.44
2019-03-26T16:41:48.070Z,12.07
2019-03-26T16:44:06.371Z,11.31
2019-03-26T16:46:36.593Z,11.88
2019-03-26T16:49:05.976Z,12.01
2019-03-26T16:51:52.693Z,12.23
2019-03-26T16:54:22.685Z,11.77
2019-03-26T16:56:52.144Z,11.27
2019-03-26T16:59:21.868Z,11.69
2019-03-26T17:01:51.039Z,11.37
2019-03-26T17:04:20.928Z,12.22
2019-03-26T17:06:51.107Z,12.56
2019-03-26T17:09:20.754Z,12.45
2019-03-26T17:12:02.429Z,11.24
2019-03-26T17:14:24.937Z,11.44
2019-03-26T17:16:54.323Z,12.73
2019-03-26T17:19:23.786Z,11.53
2019-03-26T17:21:53.063Z,11.14
2019-03-26T17:24:22.221Z,12.34
2019-03-26T17:26:51.602Z,11.04
2019-03-26T17:29:20.812Z,11.67
2019-03-26T17:31:50.330Z,11.69
2019-03-26T17:34:19.560Z,11.48
2019-03-26T17:36:49.727Z,11.37
2019-03-26T17:39:19.136Z,11.31
2019-03-26T17:41:48.367Z,11.75
2019-03-26T17:44:17.507Z,12.15
2019-03-26T17:46:46.707Z,12.47
2019-03-26T17:49:15.885Z,12.01
2019-03-26T17:51:45.059Z,12.00
2019-03-26T17:54:14.233Z,11.51
2019-03-26T17:56:47.256Z,12.00
2019-03-26T17:59:15.379Z,11.80
2019-03-26T18:01:44.668Z,11.07
2019-03-26T18:04:14.624Z,11.97
2019-03-26T18:06:44.494Z,12.13
2019-03-26T18:09:13.709Z,12.31
2019-03-26T18:11:42.912Z,10.44
2019-03-26T18:14:12.484Z,11.71
2019-03-26T18:16:41.969Z,11.31
2019-03-26T18:19:12.361Z,11.35
2019-03-26T18:21:51.346Z,12.16
2019-03-26T18:24:15.436Z,10.85
2019-03-26T18:26:44.575Z,11.42
2019-03-26T18:29:14.449Z,11.74
2019-03-26T18:31:44.198Z,12.26
2019-03-26T18:34:13.339Z,12.49
2019-03-26T18:36:42.465Z,12.23
2019-03-26T18:39:11.603Z,11.78
2019-03-26T18:41:40.797Z,12.17
2019-03-26T18:44:10.033Z,12.78
2019-03-26T18:46:40.134Z,11.22
2019-03-26T18:49:09.293Z,12.56
2019-03-26T18:51:38.454Z,12.26
2019-03-26T18:54:07.614Z,12.66
2019-03-26T18:56:36.731Z,12.32
2019-03-26T18:59:05.917Z,11.92
2019-03-26T19:01:35.071Z,11.40
2019-03-26T19:04:04.222Z,11.64
2019-03-26T19:06:33.893Z,12.60
2019-03-26T19:09:03.075Z,11.52
2019-03-26T19:11:32.216Z,12.64
2019-03-26T19:14:01.366Z,11.45
2019-03-26T19:16:30.511Z,11.42
2019-03-26T19:18:59.920Z,12.43
2019-03-26T19:21:29.111Z,12.10
2019-03-26T19:24:04.294Z,12.90
2019-03-26T19:26:29.603Z,12.55
2019-03-26T19:28:59.392Z,12.46
2019-03-26T19:31:28.761Z,12.86
2019-03-26T19:33:57.891Z,12.16
2019-03-26T19:36:27.038Z,11.21
2019-03-26T19:38:56.193Z,11.41
2019-03-26T19:41:25.327Z,12.44
2019-03-26T19:43:54.843Z,11.47
2019-03-26T19:46:24.316Z,12.75
2019-03-26T19:48:53.443Z,11.36
2019-03-26T19:51:22.576Z,12.20
2019-03-26T19:53:52.494Z,11.48
2019-03-26T19:56:21.681Z,12.15
2019-03-26T19:58:51.069Z,11.98
2019-03-26T20:01:20.321Z,11.76
2019-03-26T20:03:49.470Z,12.97
2019-03-26T20:06:18.602Z,12.55
2019-03-26T20:08:47.731Z,12.88
2019-03-26T20:11:16.886Z,13.25
2019-03-26T20:13:46.001Z,13.12
2019-03-26T20:16:15.138Z,12.88
2019-03-26T20:18:44.521Z,12.06
2019-03-26T20:21:14.345Z,11.17
2019-03-26T20:23:43.698Z,11.57
2019-03-26T20:26:13.085Z,11.49
2019-03-26T20:28:42.227Z,13.18
2019-03-26T20:31:11.439Z,13.23
2019-03-26T20:33:42.463Z,11.27
2019-03-26T20:36:11.437Z,12.87
2019-03-26T20:38:41.798Z,12.10
2019-03-26T20:41:11.043Z,11.39
2019-03-26T20:43:40.166Z,12.67
2019-03-26T20:46:09.389Z,12.83
2019-03-26T20:48:38.750Z,13.03
2019-03-26T20:51:07.900Z,12.41
2019-03-26T20:53:37.488Z,13.31
2019-03-26T20:56:07.610Z,12.63
2019-03-26T20:58:37.733Z,13.36
2019-03-26T21:01:07.137Z,13.71
2019-03-26T21:03:36.734Z,12.75
2019-03-26T21:06:06.932Z,12.95
2019-03-26T21:08:36.071Z,12.53
2019-03-26T21:11:05.460Z,12.37
2019-03-26T21:13:35.027Z,12.57
2019-03-26T21:16:05.385Z,12.94
2019-03-26T21:18:34.750Z,12.83
2019-03-26T21:21:03.954Z,12.75
2019-03-26T21:23:33.876Z,11.54
2019-03-26T21:26:03.030Z,12.51
2019-03-26T21:28:32.679Z,12.57
2019-03-26T21:31:02.030Z,13.16
2019-03-26T21:33:31.425Z,12.68
2019-03-26T21:36:01.274Z,12.74
2019-03-26T21:38:30.482Z,11.87
2019-03-26T21:40:59.883Z,12.39
2019-03-26T21:43:29.289Z,12.00
2019-03-26T21:45:58.946Z,11.45
2019-03-26T21:48:30.488Z,13.01
2019-03-26T21:50:59.689Z,13.05
2019-03-26T21:53:28.848Z,12.87
2019-03-26T21:56:06.398Z,12.88
2019-03-26T21:58:29.541Z,12.88
2019-03-26T22:00:58.721Z,13.49
2019-03-26T22:03:27.898Z,14.13
2019-03-26T22:05:57.273Z,13.33
2019-03-26T22:08:26.457Z,12.88
2019-03-26T22:10:55.595Z,12.15
2019-03-26T22:13:24.743Z,12.70
2019-03-26T22:15:54.111Z,13.18
2019-03-26T22:18:23.242Z,13.24
2019-03-26T22:20:52.413Z,11.71
2019-03-26T22:23:21.567Z,12.23
2019-03-26T22:25:50.944Z,12.23
2019-03-26T22:28:20.347Z,12.44
2019-03-26T22:30:49.501Z,12.53
2019-03-26T22:33:18.918Z,11.99
2019-03-26T22:35:48.744Z,12.65
2019-03-26T22:38:18.446Z,11.55
2019-03-26T22:40:47.576Z,12.28
2019-03-26T22:43:16.729Z,11.81
2019-03-26T22:45:45.858Z,12.81
2019-03-26T22:48:15.044Z,13.55
2019-03-26T22:50:44.170Z,13.53
2019-03-26T22:53:13.365Z,13.66
2019-03-26T22:55:42.436Z,13.47
2019-03-26T22:58:11.582Z,13.56
2019-03-26T23:00:40.968Z,14.12
2019-03-26T23:03:10.137Z,13.68
2019-03-26T23:05:40.153Z,13.51
2019-03-26T23:08:09.292Z,12.62
2019-03-26T23:10:38.437Z,13.07
2019-03-26T23:13:07.591Z,13.06
2019-03-26T23:15:36.994Z,13.66
2019-03-26T23:18:06.137Z,14.07
2019-03-26T23:20:35.747Z,14.20
2019-03-26T23:23:04.905Z,14.16
2019-03-26T23:25:34.898Z,13.87
2019-03-26T23:28:04.069Z,13.79
2019-03-26T23:30:33.227Z,13.53
2019-03-26T23:33:02.355Z,13.87
2019-03-26T23:35:31.739Z,13.51
2019-03-26T23:38:00.944Z,13.97
2019-03-26T23:40:30.088Z,13.51
2019-03-26T23:42:59.311Z,13.16
2019-03-26T23:45:28.442Z,13.21
2019-03-26T23:47:58.282Z,13.75
2019-03-26T23:50:27.423Z,13.48
2019-03-26T23:52:56.896Z,13.48
2019-03-26T23:55:26.259Z,13.59
2019-03-26T23:57:55.394Z,13.59
